Time;durP1;ratioP1;P1;durP2;ratioP2;P2;SDS_P1;SDS_P2;PMS_P1;PMS_P2;Temp;Humidity;BMP_temperature;BMP_pressure;BME280_temperature;BME280_humidity;BME280_pressure;Samples;Min_cycle;Max_cycle;Signal;HPM_P1;HPM_P2
2021/03/19 00:00:10;;;;;;;31.83;16.03;;;;;;;1.76;78.15;101191.47;5030501;28;20230;-63
2021/03/19 00:02:36;;;;;;;29.80;16.40;;;;;;;1.74;78.22;101202.00;5029218;28;20729;-63
2021/03/19 00:05:03;;;;;;;31.47;16.80;;;;;;;1.71;78.54;101196.81;5030517;28;20736;-62
2021/03/19 00:07:40;;;;;;;33.50;16.50;;;;;;;1.68;78.24;101194.22;5029692;28;20213;-62
2021/03/19 00:10:07;;;;;;;30.53;16.47;;;;;;;1.65;78.35;101200.41;5030324;28;20592;-61
2021/03/19 00:12:33;;;;;;;32.70;16.67;;;;;;;1.61;78.25;101192.63;5029052;28;20218;-61
2021/03/19 00:15:00;;;;;;;30.40;16.40;;;;;;;1.59;78.52;101197.91;5029354;28;20206;-61
2021/03/19 00:17:26;;;;;;;33.70;16.53;;;;;;;1.55;78.62;101203.22;5023621;28;20680;-62
2021/03/19 00:19:52;;;;;;;31.57;16.60;;;;;;;1.52;78.14;101193.63;5030555;28;20764;-62
2021/03/19 00:22:18;;;;;;;30.20;17.17;;;;;;;1.50;78.38;101191.94;5025914;28;20198;-62
2021/03/19 00:24:44;;;;;;;32.27;16.47;;;;;;;1.48;78.48;101191.94;5030719;28;20298;-63
2021/03/19 00:27:11;;;;;;;31.93;16.73;;;;;;;1.46;78.56;101195.50;5030603;28;20206;-61
2021/03/19 00:29:37;;;;;;;33.00;16.13;;;;;;;1.43;78.44;101191.19;5029848;28;20707;-63
2021/03/19 00:32:05;;;;;;;31.83;15.37;;;;;;;1.39;78.63;101189.50;5029685;28;20202;-62
2021/03/19 00:34:31;;;;;;;31.50;15.57;;;;;;;1.36;78.05;101190.41;5024964;28;20207;-61
2021/03/19 00:36:57;;;;;;;34.07;16.60;;;;;;;1.33;78.60;101186.97;5026856;28;20561;-63
2021/03/19 00:39:23;;;;;;;37.43;17.10;;;;;;;1.29;78.43;101193.16;5027955;28;20575;-57
2021/03/19 00:41:49;;;;;;;33.33;17.60;;;;;;;1.24;78.10;101195.88;5029853;28;20206;-62
2021/03/19 00:44:15;;;;;;;35.53;17.40;;;;;;;1.21;78.41;101188.06;5032502;28;20670;-63
2021/03/19 00:46:41;;;;;;;33.00;16.30;;;;;;;1.18;78.37;101188.09;5034370;28;20206;-63
2021/03/19 00:49:08;;;;;;;31.03;16.67;;;;;;;1.15;78.62;101185.53;5028879;28;20244;-60
2021/03/19 00:51:35;;;;;;;34.63;17.27;;;;;;;1.12;78.21;101190.81;5034309;28;20205;-62
2021/03/19 00:54:01;;;;;;;35.70;17.23;;;;;;;1.10;78.59;101191.72;5033740;28;20245;-63
2021/03/19 00:56:27;;;;;;;32.00;17.00;;;;;;;1.07;78.40;101194.41;5033942;28;20264;-63
2021/03/19 00:58:53;;;;;;;36.87;17.00;;;;;;;1.04;78.69;101190.94;5033513;28;20691;-62
2021/03/19 01:01:19;;;;;;;33.87;18.27;;;;;;;1.01;78.57;101193.63;5033712;28;20218;-63
2021/03/19 01:03:45;;;;;;;40.37;17.97;;;;;;;1.00;78.84;101191.88;5033071;28;20285;-62
2021/03/19 01:06:12;;;;;;;35.80;18.23;;;;;;;0.97;78.77;101185.81;5034159;28;20220;-63
2021/03/19 01:08:38;;;;;;;38.00;18.87;;;;;;;0.94;78.60;101193.72;5033608;28;20236;-63
2021/03/19 01:11:05;;;;;;;33.80;16.97;;;;;;;0.92;78.66;101188.50;5033925;28;20262;-62
2021/03/19 01:13:31;;;;;;;32.70;16.77;;;;;;;0.89;78.66;101198.19;5034766;28;20642;-64
2021/03/19 01:15:57;;;;;;;30.37;16.53;;;;;;;0.85;78.78;101202.59;5033235;28;20285;-62
2021/03/19 01:18:27;;;;;;;37.87;16.67;;;;;;;0.81;78.65;101207.91;5027689;28;20356;-62
2021/03/19 01:20:53;;;;;;;27.00;15.00;;;;;;;0.77;78.79;101212.31;5034105;28;20228;-62
2021/03/19 01:23:20;;;;;;;38.73;18.20;;;;;;;0.71;78.78;101209.81;5030463;28;20210;-63
2021/03/19 01:25:46;;;;;;;31.63;16.23;;;;;;;0.68;78.65;101215.97;5029939;28;20698;-62
2021/03/19 01:28:14;;;;;;;31.53;16.00;;;;;;;0.65;78.84;101204.66;5031554;28;20336;-62
2021/03/19 01:30:43;;;;;;;31.17;15.40;;;;;;;0.62;78.69;101208.16;5032035;28;20704;-62
2021/03/19 01:33:09;;;;;;;31.73;16.67;;;;;;;0.58;78.73;101214.34;5032676;28;20297;-62
2021/03/19 01:35:37;;;;;;;37.60;17.50;;;;;;;0.55;78.77;101214.38;5033053;28;20293;-62
2021/03/19 01:38:04;;;;;;;39.97;17.77;;;;;;;0.52;78.88;101216.19;5033540;28;20619;-62
2021/03/19 01:40:34;;;;;;;38.73;17.13;;;;;;;0.49;79.02;101219.72;5029858;28;20309;-62
2021/03/19 01:43:02;;;;;;;37.33;17.47;;;;;;;0.48;78.86;101217.97;5033582;28;20236;-63
2021/03/19 01:46:04;;;;;;;41.23;17.90;;;;;;;0.46;78.95;101221.50;5026642;28;20301;-62
2021/03/19 01:49:07;;;;;;;34.13;16.90;;;;;;;0.44;79.10;101220.66;5043945;28;20327;-60
2021/03/19 01:52:10;;;;;;;33.10;18.00;;;;;;;0.42;79.13;101227.66;5026286;22;20233;-82
2021/03/19 01:55:14;;;;;;;39.73;17.60;;;;;;;0.38;79.18;101236.44;4997388;28;20618;-81
2021/03/19 01:58:17;;;;;;;31.30;16.10;;;;;;;0.33;79.06;101244.38;4988754;28;20212;-82
2021/03/19 02:01:22;;;;;;;35.97;17.23;;;;;;;0.30;79.25;101245.28;4991478;28;20230;-82
2021/03/19 02:04:26;;;;;;;31.53;15.83;;;;;;;0.26;79.67;101251.44;4987708;28;20255;-81
2021/03/19 02:07:29;;;;;;;36.00;16.07;;;;;;;0.24;79.64;101254.94;4988154;28;20294;-83
2021/03/19 02:10:32;;;;;;;26.40;14.57;;;;;;;0.22;79.83;101251.47;4990191;28;20248;-82
2021/03/19 02:13:36;;;;;;;28.37;13.97;;;;;;;0.19;79.81;101247.13;4988303;28;20230;-84
2021/03/19 02:16:39;;;;;;;26.73;13.57;;;;;;;0.19;79.82;101248.88;4989328;28;20210;-83
2021/03/19 02:19:42;;;;;;;25.57;13.60;;;;;;;0.19;80.12;101248.88;4990755;28;20227;-83
2021/03/19 02:22:45;;;;;;;24.87;13.97;;;;;;;0.16;80.26;101244.56;4989848;28;20812;-82
2021/03/19 02:25:49;;;;;;;28.70;13.13;;;;;;;0.16;80.23;101249.81;4990090;28;20286;-83
2021/03/19 02:28:52;;;;;;;26.60;13.20;;;;;;;0.15;80.41;101250.69;4990137;28;20636;-83
2021/03/19 02:31:51;;;;;;;23.10;12.23;;;;;;;0.15;80.59;101252.44;4989160;28;20271;-82
2021/03/19 02:34:18;;;;;;;23.20;13.27;;;;;;;0.13;80.49;101255.09;4987768;28;20211;-81
2021/03/19 02:36:44;;;;;;;24.67;12.43;;;;;;;0.13;80.28;101255.09;4989004;28;20211;-81
2021/03/19 02:39:10;;;;;;;25.00;12.60;;;;;;;0.13;80.69;101254.22;4986464;28;20235;-83
2021/03/19 02:41:36;;;;;;;20.27;12.33;;;;;;;0.13;80.42;101256.81;4986709;28;20231;-83
2021/03/19 02:44:03;;;;;;;25.13;12.93;;;;;;;0.14;80.67;101261.19;4983032;28;20292;-84
2021/03/19 02:46:30;;;;;;;22.17;11.97;;;;;;;0.13;80.47;101260.31;4987807;28;20215;-83
2021/03/19 02:48:56;;;;;;;24.67;12.03;;;;;;;0.14;80.48;101263.81;4978226;28;20341;-82
2021/03/19 02:51:22;;;;;;;22.77;11.63;;;;;;;0.14;80.65;101261.19;4983565;28;20666;-83
2021/03/19 02:53:48;;;;;;;24.27;12.10;;;;;;;0.15;80.76;101274.28;4978230;28;20707;-83
2021/03/19 02:56:15;;;;;;;27.13;13.17;;;;;;;0.16;80.68;101270.75;4989075;28;20204;-82
2021/03/19 02:58:42;;;;;;;25.77;12.27;;;;;;;0.19;80.89;101259.38;4995018;28;20199;-83
2021/03/19 03:01:08;;;;;;;25.10;12.87;;;;;;;0.20;80.82;101274.19;4981002;28;20200;-83
2021/03/19 03:03:35;;;;;;;21.20;12.63;;;;;;;0.21;80.78;101282.03;4997540;28;20220;-82
2021/03/19 03:06:02;;;;;;;20.00;11.87;;;;;;;0.22;80.82;101289.00;4987903;28;20204;-82
2021/03/19 03:08:30;;;;;;;20.30;11.63;;;;;;;0.22;80.96;101290.75;4996510;28;20226;-82
2021/03/19 03:10:57;;;;;;;20.50;11.57;;;;;;;0.21;80.80;101296.88;4977639;28;20582;-83
2021/03/19 03:13:24;;;;;;;22.97;11.37;;;;;;;0.21;80.61;101296.88;4995872;28;20385;-82
2021/03/19 03:15:50;;;;;;;21.10;10.63;;;;;;;0.21;80.61;101296.88;4988669;28;20602;-83
2021/03/19 03:18:17;;;;;;;18.53;10.77;;;;;;;0.19;80.63;101299.53;4996842;28;20556;-81
2021/03/19 03:20:48;;;;;;;17.80;10.90;;;;;;;0.19;80.81;101302.13;4989879;28;20208;-82
2021/03/19 03:23:16;;;;;;;19.23;11.40;;;;;;;0.19;80.89;101301.28;4983368;28;20255;-82
2021/03/19 03:25:42;;;;;;;21.27;11.80;;;;;;;0.19;80.85;101302.13;4983343;28;20271;-82
2021/03/19 03:28:09;;;;;;;19.10;11.20;;;;;;;0.21;81.22;101309.97;4983260;28;20323;-84
2021/03/19 03:30:39;;;;;;;16.97;9.90;;;;;;;0.22;80.83;101306.47;4980653;28;20212;-81
2021/03/19 03:33:06;;;;;;;19.13;11.33;;;;;;;0.22;80.92;101307.34;4987736;28;20310;-82
2021/03/19 03:35:33;;;;;;;17.33;10.63;;;;;;;0.24;80.96;101310.81;4982456;28;20266;-83
2021/03/19 03:38:01;;;;;;;19.73;11.00;;;;;;;0.25;80.80;101311.69;4993467;28;20291;-81
2021/03/19 03:40:31;;;;;;;20.97;10.67;;;;;;;0.25;80.94;101309.06;4980493;28;20214;-82
2021/03/19 03:42:57;;;;;;;18.27;10.43;;;;;;;0.25;80.93;101314.31;4982358;28;20224;-83
2021/03/19 03:45:24;;;;;;;20.83;11.03;;;;;;;0.24;80.75;101323.94;4980001;28;20253;-81
2021/03/19 03:47:50;;;;;;;22.50;11.77;;;;;;;0.25;81.10;101316.94;4980144;28;20255;-83
2021/03/19 03:50:20;;;;;;;18.27;10.93;;;;;;;0.25;81.01;101319.56;4990787;28;20219;-82
2021/03/19 03:52:46;;;;;;;19.20;11.27;;;;;;;0.26;80.84;101321.28;4996268;28;20306;-82
2021/03/19 03:55:15;;;;;;;18.97;10.87;;;;;;;0.25;80.68;101316.94;4996168;28;20208;-82
2021/03/19 03:57:41;;;;;;;18.00;11.13;;;;;;;0.24;80.63;101321.31;4978524;28;20594;-82
2021/03/19 04:00:11;;;;;;;19.10;10.40;;;;;;;0.23;81.09;101326.56;4983219;28;20607;-83
2021/03/19 04:02:38;;;;;;;19.13;10.73;;;;;;;0.20;80.92;101327.44;4986049;28;20736;-82
2021/03/19 04:05:12;;;;;;;19.47;11.20;;;;;;;0.21;81.03;101333.56;4980991;28;20200;-82
2021/03/19 04:07:38;;;;;;;18.67;10.20;;;;;;;0.20;80.66;101335.31;4986192;28;20207;-82
2021/03/19 04:10:06;;;;;;;16.53;10.03;;;;;;;0.20;80.99;101339.69;4983773;28;20258;-81
2021/03/19 04:12:33;;;;;;;21.70;11.20;;;;;;;0.19;80.82;101345.81;4978763;28;20251;-80
2021/03/19 04:14:59;;;;;;;16.77;11.00;;;;;;;0.15;80.73;101336.25;4978068;28;20684;-82
2021/03/19 04:17:28;;;;;;;19.50;11.13;;;;;;;0.13;80.95;101344.13;4985104;28;20738;-82
2021/03/19 04:19:56;;;;;;;16.70;10.30;;;;;;;0.12;80.92;101346.75;4989411;28;20196;-81
2021/03/19 04:22:22;;;;;;;18.90;10.70;;;;;;;0.11;80.57;101352.88;4993701;28;20316;-82
2021/03/19 04:24:48;;;;;;;17.07;10.80;;;;;;;0.08;80.88;101353.78;4984087;28;20200;-83
2021/03/19 04:27:18;;;;;;;17.20;9.47;;;;;;;0.04;80.52;101362.53;4976679;28;20227;-81
2021/03/19 04:29:45;;;;;;;16.10;9.83;;;;;;;0.00;80.43;101360.84;4992255;28;20228;-81
2021/03/19 04:32:11;;;;;;;17.77;9.53;;;;;;;-0.04;80.61;101361.75;4983779;28;20330;-81
2021/03/19 04:34:38;;;;;;;19.07;9.93;;;;;;;-0.07;80.49;101365.25;4987678;28;20715;-81
2021/03/19 04:37:05;;;;;;;14.50;9.27;;;;;;;-0.12;80.78;101363.53;4981993;28;20203;-81
2021/03/19 04:39:31;;;;;;;16.47;9.90;;;;;;;-0.15;80.38;101364.44;4986281;28;20688;-82
2021/03/19 04:42:00;;;;;;;15.67;9.73;;;;;;;-0.17;80.65;101368.81;4982181;28;20197;-81
2021/03/19 04:44:30;;;;;;;15.67;9.70;;;;;;;-0.20;80.79;101368.00;4990147;28;20200;-81
2021/03/19 04:46:57;;;;;;;16.80;9.27;;;;;;;-0.21;80.72;101376.72;4987713;28;20285;-82
2021/03/19 04:49:24;;;;;;;18.07;10.40;;;;;;;-0.24;80.46;101390.69;4995600;28;20254;-82
2021/03/19 04:51:50;;;;;;;18.20;10.30;;;;;;;-0.27;80.87;101387.22;4982192;28;20299;-82
2021/03/19 04:54:16;;;;;;;17.57;11.03;;;;;;;-0.29;80.60;101383.75;4977875;28;20212;-82
2021/03/19 04:56:42;;;;;;;14.77;9.90;;;;;;;-0.32;80.71;101376.78;4993455;28;20215;-82
2021/03/19 04:59:09;;;;;;;18.63;10.40;;;;;;;-0.34;80.65;101381.16;4990488;28;20200;-82
2021/03/19 05:01:46;;;;;;;16.43;10.23;;;;;;;-0.37;81.06;101382.09;4986254;28;20232;-82
2021/03/19 05:04:13;;;;;;;16.37;9.80;;;;;;;-0.39;81.01;101389.06;4994778;28;20598;-82
2021/03/19 05:06:40;;;;;;;18.20;9.60;;;;;;;-0.40;81.04;101384.72;4993494;28;20227;-82
2021/03/19 05:09:06;;;;;;;12.73;8.53;;;;;;;-0.40;81.20;101391.69;4986193;28;20247;-82
2021/03/19 05:11:32;;;;;;;15.53;8.60;;;;;;;-0.42;81.05;101390.81;4992484;28;20290;-82
2021/03/19 05:13:58;;;;;;;14.57;9.07;;;;;;;-0.44;81.02;101390.84;4989761;28;20664;-81
2021/03/19 05:16:24;;;;;;;15.40;8.57;;;;;;;-0.46;81.02;101395.22;4992924;28;20372;-82
2021/03/19 05:18:50;;;;;;;18.33;8.53;;;;;;;-0.47;81.13;101387.38;4993243;28;20208;-81
2021/03/19 05:21:17;;;;;;;13.97;9.10;;;;;;;-0.48;80.84;101398.72;4989676;28;20230;-81
2021/03/19 05:23:43;;;;;;;12.80;9.30;;;;;;;-0.51;80.90;101398.72;4982177;28;20231;-80
2021/03/19 05:26:09;;;;;;;16.67;10.13;;;;;;;-0.53;80.84;101396.09;4985397;28;20240;-80
2021/03/19 05:28:36;;;;;;;21.47;11.10;;;;;;;-0.56;80.59;101397.91;4981370;28;20678;-80
2021/03/19 05:31:03;;;;;;;16.07;11.00;;;;;;;-0.59;80.65;101400.53;4982622;28;20304;-82
2021/03/19 05:33:41;;;;;;;16.53;10.13;;;;;;;-0.63;80.80;101402.28;4992556;28;20227;-80
2021/03/19 05:36:08;;;;;;;19.60;11.43;;;;;;;-0.65;80.67;101411.03;4986524;28;20252;-80
2021/03/19 05:38:35;;;;;;;19.77;11.87;;;;;;;-0.67;81.01;101407.53;4994319;28;20294;-82
2021/03/19 05:41:01;;;;;;;21.37;11.20;;;;;;;-0.68;80.96;101411.03;4989734;28;20632;-82
2021/03/19 05:43:31;;;;;;;22.13;11.73;;;;;;;-0.70;80.66;101411.03;5025759;22;20317;-79
2021/03/19 05:46:01;;;;;;;17.50;10.00;;;;;;;-0.73;80.96;101411.94;5035013;28;20670;-78
2021/03/19 05:48:37;;;;;;;14.50;9.87;;;;;;;-0.73;80.95;101427.63;5026114;28;20214;-78
2021/03/19 05:51:04;;;;;;;15.07;9.30;;;;;;;-0.74;80.72;101423.28;5037499;28;20228;-79
2021/03/19 05:53:41;;;;;;;18.27;10.37;;;;;;;-0.75;80.80;101432.00;5028376;28;20318;-77
2021/03/19 05:56:15;;;;;;;14.13;9.00;;;;;;;-0.75;80.79;101436.38;5021894;28;20586;-77
2021/03/19 05:58:43;;;;;;;13.47;9.03;;;;;;;-0.76;80.98;101432.00;5019707;28;20199;-79
2021/03/19 06:01:09;;;;;;;13.63;9.27;;;;;;;-0.76;80.70;101438.13;5018101;28;20297;-77
2021/03/19 06:03:35;;;;;;;16.57;9.83;;;;;;;-0.79;80.84;101440.72;5019143;28;20725;-78
2021/03/19 06:06:03;;;;;;;14.67;8.60;;;;;;;-0.81;80.96;101437.25;5016466;28;20252;-78
2021/03/19 06:08:33;;;;;;;12.20;9.20;;;;;;;-0.80;81.47;101440.75;5016883;28;20711;-78
2021/03/19 06:11:14;;;;;;;14.23;9.47;;;;;;;-0.79;81.19;101437.25;5018046;28;20290;-79
2021/03/19 06:13:47;;;;;;;16.80;9.27;;;;;;;-0.79;81.13;101438.13;5017865;28;20246;-78
2021/03/19 06:16:34;;;;;;;17.50;9.50;;;;;;;-0.78;81.27;101439.00;5018414;28;20617;-79
2021/03/19 06:19:03;;;;;;;14.73;9.03;;;;;;;-0.77;81.10;101444.22;5032728;28;20206;-78
2021/03/19 06:21:32;;;;;;;13.53;8.47;;;;;;;-0.76;81.15;101445.09;5024779;28;20295;-79
2021/03/19 06:24:07;;;;;;;15.17;9.20;;;;;;;-0.77;81.59;101441.59;5024516;28;20237;-78
2021/03/19 06:26:37;;;;;;;13.23;9.47;;;;;;;-0.75;81.40;101452.06;5013705;28;20212;-78
2021/03/19 06:29:13;;;;;;;16.53;10.53;;;;;;;-0.75;81.65;101452.94;5021135;28;20258;-78
2021/03/19 06:31:40;;;;;;;15.53;9.93;;;;;;;-0.71;81.83;101459.00;5022283;28;20276;-79
2021/03/19 06:34:12;;;;;;;16.53;8.73;;;;;;;-0.68;81.68;101460.72;5023259;28;20227;-79
2021/03/19 06:36:57;;;;;;;13.90;8.57;;;;;;;-0.64;81.72;101472.94;5031364;28;20696;-79
2021/03/19 06:39:26;;;;;;;13.93;9.40;;;;;;;-0.60;81.96;101466.81;5022207;28;20207;-78
2021/03/19 06:42:28;;;;;;;16.20;9.17;;;;;;;-0.58;81.86;101472.91;5021399;28;20210;-78
2021/03/19 06:45:07;;;;;;;13.90;8.90;;;;;;;-0.56;81.76;101479.00;5002534;28;20214;-78
2021/03/19 06:47:38;;;;;;;15.77;8.07;;;;;;;-0.54;82.23;101479.88;5016908;28;20221;-79
2021/03/19 06:50:06;;;;;;;13.03;9.10;;;;;;;-0.51;81.66;101485.06;5022198;28;20223;-78
2021/03/19 06:52:34;;;;;;;13.73;7.70;;;;;;;-0.49;81.99;101480.69;5021498;28;20246;-78
2021/03/19 06:55:02;;;;;;;15.57;9.63;;;;;;;-0.45;81.48;101482.44;5021547;28;20231;-77
2021/03/19 06:57:42;;;;;;;18.93;10.47;;;;;;;-0.42;81.90;101487.66;5021621;28;20215;-78
2021/03/19 07:00:12;;;;;;;12.07;8.30;;;;;;;-0.40;81.97;101480.66;5010092;28;20566;-77
2021/03/19 07:02:58;;;;;;;14.43;8.60;;;;;;;-0.38;81.83;101487.63;5021240;28;20259;-80
2021/03/19 07:05:59;;;;;;;10.77;7.47;;;;;;;-0.35;81.61;101489.34;5030870;28;20198;-79
2021/03/19 07:08:34;;;;;;;11.97;7.60;;;;;;;-0.32;81.88;101491.94;5023841;28;20233;-79
2021/03/19 07:11:14;;;;;;;13.63;8.30;;;;;;;-0.29;81.81;101498.91;5023882;28;20194;-78
2021/03/19 07:13:57;;;;;;;11.40;8.07;;;;;;;-0.25;82.12;101509.38;5020888;28;20237;-78
2021/03/19 07:16:29;;;;;;;10.40;7.40;;;;;;;-0.22;81.80;101511.97;5021168;28;20205;-78
2021/03/19 07:19:11;;;;;;;11.03;7.77;;;;;;;-0.19;81.73;101519.81;5028630;28;20191;-79
2021/03/19 07:22:00;;;;;;;13.70;8.50;;;;;;;-0.12;82.05;101526.75;5021844;28;20226;-79
2021/03/19 07:24:44;;;;;;;14.87;8.80;;;;;;;-0.06;81.97;101529.34;5021519;28;20223;-79
2021/03/19 07:27:28;;;;;;;11.77;8.07;;;;;;;-0.01;81.86;101516.22;5020693;28;20297;-79
2021/03/19 07:30:07;;;;;;;14.40;8.13;;;;;;;0.07;81.88;101524.00;5020766;28;20215;-79
2021/03/19 07:33:21;;;;;;;11.77;8.03;;;;;;;0.12;82.10;101523.13;5021342;28;20229;-79
2021/03/19 07:35:59;;;;;;;13.60;8.27;;;;;;;0.19;82.09;101530.03;4969459;28;20208;-79
2021/03/19 07:39:06;;;;;;;11.07;7.50;;;;;;;0.26;82.02;101533.50;5018897;28;20203;-79
2021/03/19 07:41:48;;;;;;;13.87;8.77;;;;;;;0.34;82.17;101544.81;5008613;28;20272;-79
2021/03/19 07:44:25;;;;;;;14.60;9.53;;;;;;;0.45;82.33;101542.09;5019964;28;20317;-79
2021/03/19 07:47:03;;;;;;;13.57;8.57;;;;;;;0.52;82.24;101547.28;5026236;28;20198;-79
2021/03/19 07:49:47;;;;;;;14.67;8.63;;;;;;;0.62;82.25;101548.94;5023042;28;20261;-78
2021/03/19 07:52:30;;;;;;;11.40;7.63;;;;;;;0.72;81.86;101543.63;5024727;28;20689;-78
2021/03/19 07:55:02;;;;;;;13.17;8.63;;;;;;;0.83;82.25;101544.41;5019166;28;20253;-78
2021/03/19 07:57:36;;;;;;;11.13;7.63;;;;;;;0.94;82.30;101547.78;5033088;28;20227;-78
2021/03/19 08:00:09;;;;;;;15.37;8.30;;;;;;;1.10;82.34;101551.09;5027185;28;20258;-78
2021/03/19 08:02:54;;;;;;;10.60;7.50;;;;;;;1.24;82.19;101552.72;5024675;28;20767;-80
2021/03/19 08:05:25;;;;;;;12.43;7.37;;;;;;;1.39;82.12;101560.44;5035747;28;20683;-79
2021/03/19 08:08:02;;;;;;;10.30;8.03;;;;;;;1.53;82.31;101556.78;5016928;28;20206;-80
2021/03/19 08:10:32;;;;;;;10.90;7.40;;;;;;;1.68;82.12;101556.59;5030459;28;20210;-77
2021/03/19 08:13:08;;;;;;;11.30;7.20;;;;;;;1.83;81.63;101552.88;5019964;28;20227;-80
2021/03/19 08:15:41;;;;;;;10.37;7.73;;;;;;;1.95;81.17;101553.63;5025753;28;20233;-79
2021/03/19 08:18:16;;;;;;;13.17;7.53;;;;;;;2.08;80.79;101549.03;5034845;28;20218;-79
2021/03/19 08:21:03;;;;;;;10.00;7.47;;;;;;;2.21;80.45;101547.97;5029305;28;20213;-79
2021/03/19 08:23:40;;;;;;;11.20;7.33;;;;;;;2.33;80.66;101558.28;5026548;28;20261;-79
2021/03/19 08:26:18;;;;;;;9.70;6.80;;;;;;;2.44;80.32;101559.00;5018332;28;20214;-79
2021/03/19 08:28:54;;;;;;;11.33;7.20;;;;;;;2.54;79.26;101570.25;5032403;28;20336;-79
2021/03/19 08:31:28;;;;;;;9.87;6.60;;;;;;;2.65;79.82;101577.97;5026389;28;20202;-81
2021/03/19 08:34:03;;;;;;;9.03;6.90;;;;;;;2.78;79.46;101567.22;5020321;28;20222;-80
2021/03/19 08:36:40;;;;;;;11.47;6.43;;;;;;;2.94;79.34;101572.22;5023343;28;20207;-80
2021/03/19 08:39:14;;;;;;;13.00;6.70;;;;;;;3.08;78.76;101576.34;5028754;28;20214;-79
2021/03/19 08:41:46;;;;;;;9.37;6.43;;;;;;;3.20;77.74;101579.66;5010662;28;20196;-79
2021/03/19 08:44:14;;;;;;;7.37;5.23;;;;;;;3.28;76.92;101583.88;5024428;28;20637;-81
2021/03/19 08:46:45;;;;;;;8.50;5.53;;;;;;;3.35;77.37;101596.06;5018832;28;20265;-80
2021/03/19 08:49:27;;;;;;;7.30;5.20;;;;;;;3.46;76.88;101603.75;5015597;28;20218;-79
2021/03/19 08:51:58;;;;;;;6.90;5.27;;;;;;;3.50;76.07;101602.78;5009654;28;20246;-78
2021/03/19 08:54:27;;;;;;;8.53;4.37;;;;;;;3.53;75.43;101599.22;5019891;28;20641;-80
2021/03/19 08:57:15;;;;;;;5.53;4.00;;;;;;;3.53;74.82;101604.50;5019034;28;20223;-78
2021/03/19 08:59:53;;;;;;;6.67;4.27;;;;;;;3.49;74.29;101601.06;5018811;28;20199;-79
2021/03/19 09:02:41;;;;;;;7.83;4.20;;;;;;;3.50;73.94;101605.41;5029886;28;20209;-79
2021/03/19 09:05:27;;;;;;;5.67;3.43;;;;;;;3.51;74.13;101599.25;5032828;28;20229;-79
2021/03/19 09:08:13;;;;;;;6.77;4.20;;;;;;;3.61;73.74;101607.84;5026868;28;20262;-79
2021/03/19 09:11:04;;;;;;;6.00;3.63;;;;;;;3.72;73.45;101613.78;5027014;28;20230;-80
2021/03/19 09:13:30;;;;;;;6.77;3.57;;;;;;;3.82;72.32;101610.06;5022280;28;20230;-79
2021/03/19 09:15:57;;;;;;;3.70;2.70;;;;;;;3.96;72.42;101613.25;5026645;28;20241;-80
2021/03/19 09:18:42;;;;;;;4.87;3.13;;;;;;;4.09;72.20;101598.94;5022564;28;20210;-78
2021/03/19 09:21:29;;;;;;;6.97;3.63;;;;;;;4.26;72.50;101597.72;5025737;28;20209;-80
2021/03/19 09:24:04;;;;;;;3.80;3.03;;;;;;;4.46;72.18;101598.13;5027747;28;20772;-78
2021/03/19 09:26:44;;;;;;;5.07;3.13;;;;;;;4.63;71.58;101589.81;5025222;28;20731;-79
2021/03/19 09:29:28;;;;;;;4.80;3.20;;;;;;;4.77;70.61;101593.84;5024895;28;20221;-79
2021/03/19 09:31:57;;;;;;;3.47;2.77;;;;;;;4.90;69.90;101591.78;5025263;28;20592;-80
2021/03/19 09:35:14;;;;;;;3.67;2.20;;;;;;;5.00;68.72;101588.00;5026653;28;20229;-79
2021/03/19 09:37:53;;;;;;;4.70;2.43;;;;;;;5.09;67.53;101594.81;4935553;29;20233;-78
2021/03/19 09:40:45;;;;;;;3.83;2.03;;;;;;;5.10;66.25;101596.56;5006855;28;20233;-80
2021/03/19 09:43:40;;;;;;;6.03;2.50;;;;;;;5.12;65.41;101592.97;5026369;28;20238;-80
2021/03/19 09:46:13;;;;;;;1.93;1.40;;;;;;;5.23;64.98;101593.53;5028820;28;20265;-80
2021/03/19 09:48:52;;;;;;;2.70;1.40;;;;;;;5.33;64.67;101599.47;5027355;28;20230;-78
2021/03/19 09:51:31;;;;;;;2.03;1.37;;;;;;;5.41;62.98;101596.59;5025271;28;20567;-81
2021/03/19 09:53:58;;;;;;;2.83;1.60;;;;;;;5.50;62.87;101601.66;5029899;28;20219;-79
2021/03/19 09:56:30;;;;;;;1.50;1.33;;;;;;;5.62;62.28;101603.94;5031486;28;20708;-78
2021/03/19 09:58:58;;;;;;;3.10;1.20;;;;;;;5.75;61.31;101599.19;5029298;28;20214;-78
2021/03/19 10:01:34;;;;;;;2.23;1.40;;;;;;;5.79;59.90;101599.06;5024517;28;20252;-79
2021/03/19 10:04:02;;;;;;;2.97;1.70;;;;;;;5.88;58.54;101603.22;5018719;28;20251;-78
2021/03/19 10:06:33;;;;;;;3.53;1.60;;;;;;;5.90;57.98;101617.31;5023351;28;20274;-79
2021/03/19 10:09:10;;;;;;;2.50;1.60;;;;;;;5.90;58.27;101612.88;5029016;28;20253;-81
2021/03/19 10:11:36;;;;;;;3.27;1.60;;;;;;;5.97;58.81;101607.41;5033126;28;20228;-80
2021/03/19 10:14:21;;;;;;;2.87;1.57;;;;;;;6.08;58.65;101619.41;5024738;28;20324;-80
2021/03/19 10:16:47;;;;;;;2.93;1.50;;;;;;;6.16;57.94;101620.03;5025182;28;20286;-78
2021/03/19 10:19:15;;;;;;;4.70;1.90;;;;;;;6.22;58.11;101603.13;5027588;28;20661;-78
2021/03/19 10:21:44;;;;;;;3.43;1.93;;;;;;;6.23;57.41;101616.31;5023452;28;20206;-80
2021/03/19 10:24:13;;;;;;;6.43;2.30;;;;;;;6.23;57.90;101612.81;5022916;28;20230;-80
2021/03/19 10:26:47;;;;;;;2.50;1.80;;;;;;;6.26;58.07;101608.28;5017754;28;20202;-79
2021/03/19 10:29:18;;;;;;;3.50;2.50;;;;;;;6.35;58.79;101609.78;5029215;28;20226;-79
2021/03/19 10:31:49;;;;;;;4.00;2.00;;;;;;;6.37;58.30;101613.25;5021436;28;20238;-80
2021/03/19 10:34:25;;;;;;;4.67;2.10;;;;;;;6.44;59.24;101622.75;5025410;28;20222;-80
2021/03/19 10:36:58;;;;;;;3.17;2.03;;;;;;;6.49;58.33;101611.97;5023203;28;20202;-79
2021/03/19 10:39:31;;;;;;;2.33;2.03;;;;;;;6.50;57.99;101611.06;5025334;28;20211;-78
2021/03/19 10:42:15;;;;;;;4.57;2.30;;;;;;;6.56;58.28;101618.84;5029778;28;20211;-81
2021/03/19 10:44:51;;;;;;;5.93;2.53;;;;;;;6.60;58.12;101610.75;5025304;28;20215;-81
2021/03/19 10:47:24;;;;;;;6.03;2.47;;;;;;;6.66;58.02;101624.69;5020692;28;20250;-79
2021/03/19 10:49:55;;;;;;;2.50;2.13;;;;;;;6.68;58.02;101613.13;5027220;28;20569;-79
2021/03/19 10:52:29;;;;;;;4.50;2.47;;;;;;;6.65;57.45;101623.81;5021558;28;20203;-78
2021/03/19 10:55:00;;;;;;;4.63;2.03;;;;;;;6.68;58.48;101610.50;5025571;28;20588;-77
2021/03/19 10:57:30;;;;;;;4.10;2.50;;;;;;;6.73;58.26;101605.94;5026687;28;20245;-79
2021/03/19 10:59:57;;;;;;;3.23;2.10;;;;;;;6.84;59.34;101610.84;5026417;28;20232;-79
2021/03/19 11:02:26;;;;;;;7.03;2.53;;;;;;;6.90;58.73;101621.25;5024433;28;20206;-79
2021/03/19 11:05:13;;;;;;;3.80;2.30;;;;;;;6.88;57.51;101620.44;5020727;28;20286;-78
2021/03/19 11:07:44;;;;;;;3.73;2.60;;;;;;;6.85;57.51;101617.88;5027290;28;20198;-80
2021/03/19 11:10:19;;;;;;;3.63;2.00;;;;;;;6.80;57.40;101617.19;5028288;28;20233;-80
2021/03/19 11:12:49;;;;;;;2.87;1.80;;;;;;;6.75;57.47;101619.97;5027835;28;20245;-80
2021/03/19 11:15:18;;;;;;;3.43;2.10;;;;;;;6.71;57.55;101618.34;5022890;28;20275;-78
2021/03/19 11:17:46;;;;;;;5.73;2.70;;;;;;;6.70;57.91;101628.97;5024679;28;20258;-79
2021/03/19 11:20:32;;;;;;;6.10;2.50;;;;;;;6.68;57.90;101633.44;5028955;28;20230;-79
2021/03/19 11:22:58;;;;;;;4.20;3.07;;;;;;;6.62;58.61;101634.53;5026571;28;20705;-80
2021/03/19 11:25:44;;;;;;;5.77;3.57;;;;;;;6.56;58.72;101638.22;5022463;28;20341;-80
2021/03/19 11:28:29;;;;;;;3.60;2.97;;;;;;;6.45;58.93;101642.97;5021963;28;20302;-79
2021/03/19 11:30:55;;;;;;;4.53;2.83;;;;;;;6.26;58.51;101641.81;5015416;28;20257;-81
2021/03/19 11:33:22;;;;;;;4.77;2.70;;;;;;;6.12;58.91;101644.84;5019872;28;20234;-81
2021/03/19 11:36:08;;;;;;;3.07;2.43;;;;;;;6.05;59.34;101651.22;5019624;28;20240;-79
2021/03/19 11:38:37;;;;;;;6.53;3.70;;;;;;;6.05;59.88;101648.59;5019841;28;20206;-81
2021/03/19 11:41:22;;;;;;;3.73;3.17;;;;;;;6.08;60.51;101656.44;5022305;28;20262;-81
2021/03/19 11:43:48;;;;;;;6.37;3.57;;;;;;;6.11;60.40;101653.69;5026645;28;20314;-82
2021/03/19 11:46:24;;;;;;;4.57;3.20;;;;;;;6.17;60.61;101658.81;5019925;28;20306;-83
2021/03/19 11:48:50;;;;;;;5.63;3.70;;;;;;;6.18;60.51;101663.19;5020170;28;20221;-81
2021/03/19 11:51:19;;;;;;;6.83;3.20;;;;;;;6.20;60.43;101664.00;5025136;28;20211;-83